sensor_id;sensor_type;location;lat;lon;timestamp;P1;durP1;ratioP1;P2;durP2;ratioP2
50056;SDS011;36875;49.468;11.200;2022-11-20T00:01:41;3.75;;;2.58;;
50056;SDS011;36875;49.468;11.200;2022-11-20T00:04:08;4.20;;;2.67;;
50056;SDS011;36875;49.468;11.200;2022-11-20T00:06:35;3.88;;;2.60;;
50056;SDS011;36875;49.468;11.200;2022-11-20T00:09:00;3.95;;;2.60;;
50056;SDS011;36875;49.468;11.200;2022-11-20T00:11:28;3.75;;;2.80;;
50056;SDS011;36875;49.468;11.200;2022-11-20T00:13:55;3.67;;;2.50;;
50056;SDS011;36875;49.468;11.200;2022-11-20T00:16:23;4.55;;;2.83;;
50056;SDS011;36875;49.468;11.200;2022-11-20T00:18:50;5.07;;;2.70;;
50056;SDS011;36875;49.468;11.200;2022-11-20T00:21:18;3.28;;;2.40;;
50056;SDS011;36875;49.468;11.200;2022-11-20T00:23:44;3.33;;;2.40;;
50056;SDS011;36875;49.468;11.200;2022-11-20T00:26:10;4.18;;;2.60;;
50056;SDS011;36875;49.468;11.200;2022-11-20T00:28:38;4.05;;;2.40;;
50056;SDS011;36875;49.468;11.200;2022-11-20T00:31:05;3.50;;;2.50;;
50056;SDS011;36875;49.468;11.200;2022-11-20T00:33:32;3.80;;;2.63;;
50056;SDS011;36875;49.468;11.200;2022-11-20T00:36:00;3.63;;;2.53;;
50056;SDS011;36875;49.468;11.200;2022-11-20T00:38:26;3.53;;;2.38;;
50056;SDS011;36875;49.468;11.200;2022-11-20T00:40:54;4.38;;;2.60;;
50056;SDS011;36875;49.468;11.200;2022-11-20T00:43:20;3.67;;;2.45;;
50056;SDS011;36875;49.468;11.200;2022-11-20T00:45:47;2.95;;;2.20;;
50056;SDS011;36875;49.468;11.200;2022-11-20T00:48:13;3.15;;;2.20;;
50056;SDS011;36875;49.468;11.200;2022-11-20T00:50:38;4.85;;;2.55;;
50056;SDS011;36875;49.468;11.200;2022-11-20T00:53:04;3.20;;;2.42;;
50056;SDS011;36875;49.468;11.200;2022-11-20T00:55:32;3.58;;;2.35;;
50056;SDS011;36875;49.468;11.200;2022-11-20T00:57:58;3.17;;;2.20;;
50056;SDS011;36875;49.468;11.200;2022-11-20T01:00:23;3.10;;;2.38;;
50056;SDS011;36875;49.468;11.200;2022-11-20T01:02:50;2.42;;;2.00;;
50056;SDS011;36875;49.468;11.200;2022-11-20T01:05:15;3.28;;;2.40;;
50056;SDS011;36875;49.468;11.200;2022-11-20T01:07:41;3.97;;;2.58;;
50056;SDS011;36875;49.468;11.200;2022-11-20T01:10:07;4.10;;;2.70;;
50056;SDS011;36875;49.468;11.200;2022-11-20T01:12:33;4.57;;;2.30;;
50056;SDS011;36875;49.468;11.200;2022-11-20T01:14:58;3.53;;;2.40;;
50056;SDS011;36875;49.468;11.200;2022-11-20T01:17:24;4.03;;;2.50;;
50056;SDS011;36875;49.468;11.200;2022-11-20T01:19:50;4.53;;;2.72;;
50056;SDS011;36875;49.468;11.200;2022-11-20T01:22:16;3.70;;;2.38;;
50056;SDS011;36875;49.468;11.200;2022-11-20T01:24:41;3.20;;;2.10;;
50056;SDS011;36875;49.468;11.200;2022-11-20T01:27:07;3.50;;;2.40;;
50056;SDS011;36875;49.468;11.200;2022-11-20T01:29:32;3.35;;;2.30;;
50056;SDS011;36875;49.468;11.200;2022-11-20T01:31:58;3.65;;;2.33;;
50056;SDS011;36875;49.468;11.200;2022-11-20T01:34:23;3.85;;;2.60;;
50056;SDS011;36875;49.468;11.200;2022-11-20T01:36:52;2.90;;;2.20;;
50056;SDS011;36875;49.468;11.200;2022-11-20T01:39:19;3.53;;;2.30;;
50056;SDS011;36875;49.468;11.200;2022-11-20T01:41:46;3.78;;;2.42;;
50056;SDS011;36875;49.468;11.200;2022-11-20T01:44:45;3.53;;;2.40;;
50056;SDS011;36875;49.468;11.200;2022-11-20T01:47:15;3.58;;;2.40;;
50056;SDS011;36875;49.468;11.200;2022-11-20T01:49:46;3.67;;;2.30;;
50056;SDS011;36875;49.468;11.200;2022-11-20T01:52:17;4.22;;;2.17;;
50056;SDS011;36875;49.468;11.200;2022-11-20T01:54:49;3.80;;;2.47;;
50056;SDS011;36875;49.468;11.200;2022-11-20T01:57:19;3.40;;;2.22;;
50056;SDS011;36875;49.468;11.200;2022-11-20T01:59:47;3.13;;;2.20;;
50056;SDS011;36875;49.468;11.200;2022-11-20T02:02:19;3.10;;;2.35;;
50056;SDS011;36875;49.468;11.200;2022-11-20T02:04:45;3.13;;;2.40;;
50056;SDS011;36875;49.468;11.200;2022-11-20T02:07:12;2.80;;;2.10;;
50056;SDS011;36875;49.468;11.200;2022-11-20T02:09:43;3.47;;;2.33;;
50056;SDS011;36875;49.468;11.200;2022-11-20T02:12:08;2.95;;;2.40;;
50056;SDS011;36875;49.468;11.200;2022-11-20T02:14:54;3.55;;;2.60;;
50056;SDS011;36875;49.468;11.200;2022-11-20T02:17:19;2.72;;;2.13;;
50056;SDS011;36875;49.468;11.200;2022-11-20T02:19:48;3.15;;;2.38;;
50056;SDS011;36875;49.468;11.200;2022-11-20T02:22:14;3.85;;;2.65;;
50056;SDS011;36875;49.468;11.200;2022-11-20T02:24:45;3.40;;;2.25;;
50056;SDS011;36875;49.468;11.200;2022-11-20T02:27:13;3.28;;;2.20;;
50056;SDS011;36875;49.468;11.200;2022-11-20T02:29:40;3.45;;;2.50;;
50056;SDS011;36875;49.468;11.200;2022-11-20T02:32:17;3.25;;;2.30;;
50056;SDS011;36875;49.468;11.200;2022-11-20T02:34:43;3.25;;;2.38;;
50056;SDS011;36875;49.468;11.200;2022-11-20T02:37:09;2.97;;;2.20;;
50056;SDS011;36875;49.468;11.200;2022-11-20T02:39:34;2.72;;;1.95;;
50056;SDS011;36875;49.468;11.200;2022-11-20T02:42:01;3.10;;;2.20;;
50056;SDS011;36875;49.468;11.200;2022-11-20T02:44:27;3.63;;;2.33;;
50056;SDS011;36875;49.468;11.200;2022-11-20T02:46:53;2.63;;;2.30;;
50056;SDS011;36875;49.468;11.200;2022-11-20T02:49:18;3.30;;;2.35;;
50056;SDS011;36875;49.468;11.200;2022-11-20T02:51:44;3.28;;;2.10;;
50056;SDS011;36875;49.468;11.200;2022-11-20T02:54:09;2.83;;;2.20;;
50056;SDS011;36875;49.468;11.200;2022-11-20T02:56:36;3.28;;;2.20;;
50056;SDS011;36875;49.468;11.200;2022-11-20T02:59:04;3.15;;;2.35;;
50056;SDS011;36875;49.468;11.200;2022-11-20T03:01:29;2.72;;;2.22;;
50056;SDS011;36875;49.468;11.200;2022-11-20T03:03:55;3.10;;;2.25;;
50056;SDS011;36875;49.468;11.200;2022-11-20T03:06:21;2.90;;;2.20;;
50056;SDS011;36875;49.468;11.200;2022-11-20T03:08:46;3.15;;;2.33;;
50056;SDS011;36875;49.468;11.200;2022-11-20T03:11:12;3.05;;;2.20;;
50056;SDS011;36875;49.468;11.200;2022-11-20T03:13:37;2.60;;;2.25;;
50056;SDS011;36875;49.468;11.200;2022-11-20T03:16:11;2.63;;;2.10;;
50056;SDS011;36875;49.468;11.200;2022-11-20T03:18:37;2.72;;;2.08;;
50056;SDS011;36875;49.468;11.200;2022-11-20T03:21:03;3.55;;;2.10;;
50056;SDS011;36875;49.468;11.200;2022-11-20T03:23:30;3.13;;;2.20;;
50056;SDS011;36875;49.468;11.200;2022-11-20T03:25:56;4.07;;;2.13;;
50056;SDS011;36875;49.468;11.200;2022-11-20T03:28:31;3.20;;;2.10;;
50056;SDS011;36875;49.468;11.200;2022-11-20T03:30:56;4.30;;;2.17;;
50056;SDS011;36875;49.468;11.200;2022-11-20T03:33:23;3.33;;;2.40;;
50056;SDS011;36875;49.468;11.200;2022-11-20T03:35:49;3.13;;;2.22;;
50056;SDS011;36875;49.468;11.200;2022-11-20T03:38:14;4.03;;;2.22;;
50056;SDS011;36875;49.468;11.200;2022-11-20T03:40:40;3.90;;;2.13;;
50056;SDS011;36875;49.468;11.200;2022-11-20T03:43:05;2.85;;;2.10;;
50056;SDS011;36875;49.468;11.200;2022-11-20T03:45:30;3.63;;;2.00;;
50056;SDS011;36875;49.468;11.200;2022-11-20T03:47:56;2.60;;;2.05;;
50056;SDS011;36875;49.468;11.200;2022-11-20T03:50:23;3.00;;;2.30;;
50056;SDS011;36875;49.468;11.200;2022-11-20T03:52:48;3.00;;;2.20;;
50056;SDS011;36875;49.468;11.200;2022-11-20T03:55:14;3.28;;;2.30;;
50056;SDS011;36875;49.468;11.200;2022-11-20T03:57:39;2.55;;;2.00;;
50056;SDS011;36875;49.468;11.200;2022-11-20T04:00:05;3.00;;;2.08;;
50056;SDS011;36875;49.468;11.200;2022-11-20T04:02:31;3.20;;;2.28;;
50056;SDS011;36875;49.468;11.200;2022-11-20T04:04:57;3.25;;;2.25;;
50056;SDS011;36875;49.468;11.200;2022-11-20T04:07:24;3.65;;;2.42;;
50056;SDS011;36875;49.468;11.200;2022-11-20T04:09:49;2.50;;;2.10;;
50056;SDS011;36875;49.468;11.200;2022-11-20T04:12:14;3.10;;;2.33;;
50056;SDS011;36875;49.468;11.200;2022-11-20T04:14:40;2.65;;;2.10;;
50056;SDS011;36875;49.468;11.200;2022-11-20T04:17:05;2.72;;;2.00;;
50056;SDS011;36875;49.468;11.200;2022-11-20T04:19:31;3.47;;;2.45;;
50056;SDS011;36875;49.468;11.200;2022-11-20T04:21:56;2.80;;;2.20;;
50056;SDS011;36875;49.468;11.200;2022-11-20T04:24:23;4.47;;;2.30;;
50056;SDS011;36875;49.468;11.200;2022-11-20T04:26:49;2.67;;;1.90;;
50056;SDS011;36875;49.468;11.200;2022-11-20T04:29:14;3.00;;;2.22;;
50056;SDS011;36875;49.468;11.200;2022-11-20T04:31:39;2.53;;;2.00;;
50056;SDS011;36875;49.468;11.200;2022-11-20T04:34:06;3.20;;;2.20;;
50056;SDS011;36875;49.468;11.200;2022-11-20T04:36:32;2.83;;;2.10;;
50056;SDS011;36875;49.468;11.200;2022-11-20T04:38:59;3.28;;;2.47;;
50056;SDS011;36875;49.468;11.200;2022-11-20T04:41:28;3.03;;;2.15;;
50056;SDS011;36875;49.468;11.200;2022-11-20T04:43:55;3.20;;;2.33;;
50056;SDS011;36875;49.468;11.200;2022-11-20T04:46:24;3.20;;;2.33;;
50056;SDS011;36875;49.468;11.200;2022-11-20T04:48:51;2.92;;;2.20;;
50056;SDS011;36875;49.468;11.200;2022-11-20T04:51:17;3.13;;;2.40;;
50056;SDS011;36875;49.468;11.200;2022-11-20T04:53:43;3.28;;;2.42;;
50056;SDS011;36875;49.468;11.200;2022-11-20T04:56:09;3.15;;;2.28;;
50056;SDS011;36875;49.468;11.200;2022-11-20T04:58:37;3.05;;;2.20;;
50056;SDS011;36875;49.468;11.200;2022-11-20T05:01:03;3.15;;;2.30;;
50056;SDS011;36875;49.468;11.200;2022-11-20T05:03:30;3.17;;;2.13;;
50056;SDS011;36875;49.468;11.200;2022-11-20T05:05:57;2.72;;;2.33;;
50056;SDS011;36875;49.468;11.200;2022-11-20T05:08:25;3.08;;;2.28;;
50056;SDS011;36875;49.468;11.200;2022-11-20T05:10:50;2.58;;;2.00;;
50056;SDS011;36875;49.468;11.200;2022-11-20T05:13:16;2.83;;;2.00;;
50056;SDS011;36875;49.468;11.200;2022-11-20T05:15:43;2.80;;;2.20;;
50056;SDS011;36875;49.468;11.200;2022-11-20T05:18:08;2.97;;;2.20;;
50056;SDS011;36875;49.468;11.200;2022-11-20T05:20:33;2.97;;;2.25;;
50056;SDS011;36875;49.468;11.200;2022-11-20T05:23:01;2.95;;;2.20;;
50056;SDS011;36875;49.468;11.200;2022-11-20T05:25:27;3.17;;;2.15;;
50056;SDS011;36875;49.468;11.200;2022-11-20T05:27:52;3.05;;;2.13;;
50056;SDS011;36875;49.468;11.200;2022-11-20T05:30:18;3.08;;;2.15;;
50056;SDS011;36875;49.468;11.200;2022-11-20T05:32:45;3.25;;;2.30;;
50056;SDS011;36875;49.468;11.200;2022-11-20T05:35:10;3.65;;;2.30;;
50056;SDS011;36875;49.468;11.200;2022-11-20T05:37:36;3.28;;;2.25;;
50056;SDS011;36875;49.468;11.200;2022-11-20T05:40:01;2.88;;;2.20;;
50056;SDS011;36875;49.468;11.200;2022-11-20T05:42:29;2.80;;;2.28;;
50056;SDS011;36875;49.468;11.200;2022-11-20T05:44:55;2.83;;;2.20;;
50056;SDS011;36875;49.468;11.200;2022-11-20T05:47:21;2.95;;;2.20;;
50056;SDS011;36875;49.468;11.200;2022-11-20T05:49:47;3.00;;;2.10;;
50056;SDS011;36875;49.468;11.200;2022-11-20T05:52:13;3.00;;;2.28;;
50056;SDS011;36875;49.468;11.200;2022-11-20T05:54:38;3.00;;;2.15;;
50056;SDS011;36875;49.468;11.200;2022-11-20T05:57:04;3.13;;;2.42;;
50056;SDS011;36875;49.468;11.200;2022-11-20T05:59:29;2.97;;;2.20;;
50056;SDS011;36875;49.468;11.200;2022-11-20T06:01:55;3.05;;;2.10;;
50056;SDS011;36875;49.468;11.200;2022-11-20T06:04:20;2.60;;;1.90;;
50056;SDS011;36875;49.468;11.200;2022-11-20T06:06:47;3.38;;;2.35;;
50056;SDS011;36875;49.468;11.200;2022-11-20T06:09:13;3.00;;;2.20;;
50056;SDS011;36875;49.468;11.200;2022-11-20T06:11:38;3.13;;;2.30;;
50056;SDS011;36875;49.468;11.200;2022-11-20T06:14:04;4.07;;;2.15;;
50056;SDS011;36875;49.468;11.200;2022-11-20T06:16:29;2.53;;;2.05;;
50056;SDS011;36875;49.468;11.200;2022-11-20T06:18:55;2.78;;;2.10;;
50056;SDS011;36875;49.468;11.200;2022-11-20T06:21:21;3.25;;;2.10;;
50056;SDS011;36875;49.468;11.200;2022-11-20T06:23:49;3.30;;;2.45;;
50056;SDS011;36875;49.468;11.200;2022-11-20T06:26:16;3.58;;;2.30;;
50056;SDS011;36875;49.468;11.200;2022-11-20T06:28:43;3.25;;;2.30;;
50056;SDS011;36875;49.468;11.200;2022-11-20T06:31:09;3.05;;;2.28;;
50056;SDS011;36875;49.468;11.200;2022-11-20T06:33:35;3.22;;;2.10;;
50056;SDS011;36875;49.468;11.200;2022-11-20T06:36:02;3.22;;;2.15;;
50056;SDS011;36875;49.468;11.200;2022-11-20T06:38:28;4.28;;;2.13;;
50056;SDS011;36875;49.468;11.200;2022-11-20T06:40:56;2.90;;;2.20;;
50056;SDS011;36875;49.468;11.200;2022-11-20T06:43:21;3.55;;;2.50;;
50056;SDS011;36875;49.468;11.200;2022-11-20T06:45:51;3.00;;;2.17;;
50056;SDS011;36875;49.468;11.200;2022-11-20T06:48:17;3.70;;;2.30;;
50056;SDS011;36875;49.468;11.200;2022-11-20T06:50:42;3.50;;;2.22;;
50056;SDS011;36875;49.468;11.200;2022-11-20T06:53:07;3.30;;;2.40;;
50056;SDS011;36875;49.468;11.200;2022-11-20T06:55:33;3.40;;;2.22;;
50056;SDS011;36875;49.468;11.200;2022-11-20T06:58:00;3.08;;;2.10;;
50056;SDS011;36875;49.468;11.200;2022-11-20T07:00:25;4.85;;;2.53;;
50056;SDS011;36875;49.468;11.200;2022-11-20T07:02:51;4.68;;;2.22;;
50056;SDS011;36875;49.468;11.200;2022-11-20T07:05:16;3.10;;;2.40;;
50056;SDS011;36875;49.468;11.200;2022-11-20T07:07:42;3.08;;;2.15;;
50056;SDS011;36875;49.468;11.200;2022-11-20T07:10:08;3.83;;;2.22;;
50056;SDS011;36875;49.468;11.200;2022-11-20T07:12:34;6.85;;;2.13;;
50056;SDS011;36875;49.468;11.200;2022-11-20T07:15:02;3.45;;;2.40;;
50056;SDS011;36875;49.468;11.200;2022-11-20T07:17:28;4.47;;;2.63;;
50056;SDS011;36875;49.468;11.200;2022-11-20T07:19:53;4.82;;;2.42;;
50056;SDS011;36875;49.468;11.200;2022-11-20T07:22:18;3.72;;;2.33;;
50056;SDS011;36875;49.468;11.200;2022-11-20T07:24:46;4.70;;;2.78;;
50056;SDS011;36875;49.468;11.200;2022-11-20T07:27:12;3.55;;;2.63;;
50056;SDS011;36875;49.468;11.200;2022-11-20T07:29:37;6.95;;;2.55;;
50056;SDS011;36875;49.468;11.200;2022-11-20T07:32:05;7.82;;;4.22;;
50056;SDS011;36875;49.468;11.200;2022-11-20T07:34:30;5.47;;;3.03;;
50056;SDS011;36875;49.468;11.200;2022-11-20T07:36:56;13.52;;;4.72;;
50056;SDS011;36875;49.468;11.200;2022-11-20T07:39:21;6.10;;;3.70;;
50056;SDS011;36875;49.468;11.200;2022-11-20T07:41:47;8.82;;;3.88;;
50056;SDS011;36875;49.468;11.200;2022-11-20T07:44:12;6.18;;;4.05;;
50056;SDS011;36875;49.468;11.200;2022-11-20T07:46:38;8.13;;;3.67;;
50056;SDS011;36875;49.468;11.200;2022-11-20T07:49:04;6.13;;;3.45;;
50056;SDS011;36875;49.468;11.200;2022-11-20T07:51:30;5.68;;;3.63;;
50056;SDS011;36875;49.468;11.200;2022-11-20T07:53:55;6.55;;;3.80;;
50056;SDS011;36875;49.468;11.200;2022-11-20T07:56:21;8.40;;;3.70;;
50056;SDS011;36875;49.468;11.200;2022-11-20T07:58:46;8.98;;;3.80;;
50056;SDS011;36875;49.468;11.200;2022-11-20T08:01:12;5.88;;;3.65;;
50056;SDS011;36875;49.468;11.200;2022-11-20T08:03:37;5.32;;;3.05;;
50056;SDS011;36875;49.468;11.200;2022-11-20T08:06:04;8.07;;;3.50;;
50056;SDS011;36875;49.468;11.200;2022-11-20T08:08:30;10.65;;;3.15;;
50056;SDS011;36875;49.468;11.200;2022-11-20T08:10:56;6.45;;;3.00;;
50056;SDS011;36875;49.468;11.200;2022-11-20T08:13:41;4.95;;;3.22;;
50056;SDS011;36875;49.468;11.200;2022-11-20T08:16:25;6.50;;;3.13;;
50056;SDS011;36875;49.468;11.200;2022-11-20T08:18:51;7.50;;;3.60;;
50056;SDS011;36875;49.468;11.200;2022-11-20T08:21:18;4.55;;;2.75;;
50056;SDS011;36875;49.468;11.200;2022-11-20T08:23:43;6.50;;;2.90;;
50056;SDS011;36875;49.468;11.200;2022-11-20T08:26:09;6.40;;;2.90;;
50056;SDS011;36875;49.468;11.200;2022-11-20T08:28:34;6.13;;;3.08;;
50056;SDS011;36875;49.468;11.200;2022-11-20T08:31:00;5.43;;;3.22;;
50056;SDS011;36875;49.468;11.200;2022-11-20T08:33:26;4.90;;;2.90;;
50056;SDS011;36875;49.468;11.200;2022-11-20T08:35:52;10.30;;;3.65;;
50056;SDS011;36875;49.468;11.200;2022-11-20T08:38:19;4.75;;;2.90;;
50056;SDS011;36875;49.468;11.200;2022-11-20T08:40:44;8.60;;;3.40;;
50056;SDS011;36875;49.468;11.200;2022-11-20T08:43:30;5.20;;;2.63;;
50056;SDS011;36875;49.468;11.200;2022-11-20T08:45:56;4.88;;;2.80;;
50056;SDS011;36875;49.468;11.200;2022-11-20T08:48:21;4.15;;;2.67;;
50056;SDS011;36875;49.468;11.200;2022-11-20T08:50:47;8.25;;;2.75;;
50056;SDS011;36875;49.468;11.200;2022-11-20T08:53:12;7.30;;;2.88;;
50056;SDS011;36875;49.468;11.200;2022-11-20T08:55:39;4.95;;;2.53;;
50056;SDS011;36875;49.468;11.200;2022-11-20T08:58:04;6.25;;;2.55;;
50056;SDS011;36875;49.468;11.200;2022-11-20T09:00:30;4.57;;;2.72;;
50056;SDS011;36875;49.468;11.200;2022-11-20T09:02:57;5.03;;;2.50;;
50056;SDS011;36875;49.468;11.200;2022-11-20T09:05:23;4.50;;;2.78;;
50056;SDS011;36875;49.468;11.200;2022-11-20T09:07:49;6.22;;;2.90;;
50056;SDS011;36875;49.468;11.200;2022-11-20T09:10:14;7.20;;;2.58;;
50056;SDS011;36875;49.468;11.200;2022-11-20T09:12:41;6.05;;;2.95;;
50056;SDS011;36875;49.468;11.200;2022-11-20T09:15:07;4.97;;;2.40;;
50056;SDS011;36875;49.468;11.200;2022-11-20T09:17:33;6.22;;;2.60;;
50056;SDS011;36875;49.468;11.200;2022-11-20T09:19:58;6.45;;;2.40;;
50056;SDS011;36875;49.468;11.200;2022-11-20T09:22:24;8.18;;;2.70;;
50056;SDS011;36875;49.468;11.200;2022-11-20T09:24:49;7.28;;;2.70;;
50056;SDS011;36875;49.468;11.200;2022-11-20T09:27:15;5.65;;;2.25;;
50056;SDS011;36875;49.468;11.200;2022-11-20T09:29:46;4.97;;;2.38;;
50056;SDS011;36875;49.468;11.200;2022-11-20T09:32:12;4.55;;;2.50;;
50056;SDS011;36875;49.468;11.200;2022-11-20T09:34:37;7.13;;;2.58;;
50056;SDS011;36875;49.468;11.200;2022-11-20T09:37:03;9.55;;;3.53;;
50056;SDS011;36875;49.468;11.200;2022-11-20T09:39:28;11.40;;;3.45;;
50056;SDS011;36875;49.468;11.200;2022-11-20T09:47:49;9.40;;;2.97;;
50056;SDS011;36875;49.468;11.200;2022-11-20T09:50:30;9.93;;;3.78;;
50056;SDS011;36875;49.468;11.200;2022-11-20T09:53:01;10.02;;;3.70;;
50056;SDS011;36875;49.468;11.200;2022-11-20T09:55:41;9.25;;;3.58;;
50056;SDS011;36875;49.468;11.200;2022-11-20T09:58:11;12.15;;;3.22;;
50056;SDS011;36875;49.468;11.200;2022-11-20T10:00:42;10.35;;;4.00;;
50056;SDS011;36875;49.468;11.200;2022-11-20T10:03:11;8.10;;;2.85;;
50056;SDS011;36875;49.468;11.200;2022-11-20T10:05:42;7.10;;;3.17;;
50056;SDS011;36875;49.468;11.200;2022-11-20T10:08:11;8.52;;;3.95;;
50056;SDS011;36875;49.468;11.200;2022-11-20T10:10:44;12.70;;;3.90;;
50056;SDS011;36875;49.468;11.200;2022-11-20T10:13:16;11.18;;;3.63;;
50056;SDS011;36875;49.468;11.200;2022-11-20T10:15:56;6.75;;;3.55;;
50056;SDS011;36875;49.468;11.200;2022-11-20T10:18:39;7.70;;;3.00;;
50056;SDS011;36875;49.468;11.200;2022-11-20T10:21:17;8.02;;;3.50;;
50056;SDS011;36875;49.468;11.200;2022-11-20T10:23:56;8.27;;;2.92;;
50056;SDS011;36875;49.468;11.200;2022-11-20T10:26:37;7.18;;;3.58;;
50056;SDS011;36875;49.468;11.200;2022-11-20T10:29:11;7.32;;;2.70;;
50056;SDS011;36875;49.468;11.200;2022-11-20T10:31:40;7.68;;;3.00;;
50056;SDS011;36875;49.468;11.200;2022-11-20T10:34:12;6.55;;;2.88;;
50056;SDS011;36875;49.468;11.200;2022-11-20T10:36:47;5.57;;;2.58;;
50056;SDS011;36875;49.468;11.200;2022-11-20T10:39:22;5.97;;;2.70;;
50056;SDS011;36875;49.468;11.200;2022-11-20T10:41:54;6.05;;;2.58;;
50056;SDS011;36875;49.468;11.200;2022-11-20T10:44:22;6.18;;;2.42;;
50056;SDS011;36875;49.468;11.200;2022-11-20T10:47:11;7.20;;;2.58;;
50056;SDS011;36875;49.468;11.200;2022-11-20T10:49:39;3.83;;;2.50;;
50056;SDS011;36875;49.468;11.200;2022-11-20T10:52:09;4.93;;;2.38;;
50056;SDS011;36875;49.468;11.200;2022-11-20T10:54:42;6.78;;;2.78;;
50056;SDS011;36875;49.468;11.200;2022-11-20T10:57:17;7.10;;;3.75;;
50056;SDS011;36875;49.468;11.200;2022-11-20T10:59:58;5.15;;;2.60;;
50056;SDS011;36875;49.468;11.200;2022-11-20T11:02:32;3.72;;;2.47;;
50056;SDS011;36875;49.468;11.200;2022-11-20T11:05:06;4.03;;;2.08;;
50056;SDS011;36875;49.468;11.200;2022-11-20T11:07:50;5.50;;;3.00;;
50056;SDS011;36875;49.468;11.200;2022-11-20T11:10:21;4.13;;;2.55;;
50056;SDS011;36875;49.468;11.200;2022-11-20T11:12:51;4.38;;;2.50;;
50056;SDS011;36875;49.468;11.200;2022-11-20T11:15:24;4.88;;;2.40;;
50056;SDS011;36875;49.468;11.200;2022-11-20T11:17:53;4.50;;;2.20;;
50056;SDS011;36875;49.468;11.200;2022-11-20T11:20:19;4.75;;;2.25;;
50056;SDS011;36875;49.468;11.200;2022-11-20T11:22:47;5.30;;;2.28;;
50056;SDS011;36875;49.468;11.200;2022-11-20T11:25:21;4.28;;;2.20;;
50056;SDS011;36875;49.468;11.200;2022-11-20T11:27:50;6.18;;;2.50;;
50056;SDS011;36875;49.468;11.200;2022-11-20T11:30:18;4.07;;;2.17;;
50056;SDS011;36875;49.468;11.200;2022-11-20T11:32:44;3.85;;;2.25;;
50056;SDS011;36875;49.468;11.200;2022-11-20T11:35:22;5.60;;;2.35;;
50056;SDS011;36875;49.468;11.200;2022-11-20T11:37:49;3.50;;;2.00;;
50056;SDS011;36875;49.468;11.200;2022-11-20T11:40:19;3.30;;;2.00;;
50056;SDS011;36875;49.468;11.200;2022-11-20T11:42:48;3.70;;;2.10;;
50056;SDS011;36875;49.468;11.200;2022-11-20T11:45:18;4.38;;;2.28;;
50056;SDS011;36875;49.468;11.200;2022-11-20T11:47:44;4.30;;;2.28;;
50056;SDS011;36875;49.468;11.200;2022-11-20T11:50:16;4.05;;;2.22;;
50056;SDS011;36875;49.468;11.200;2022-11-20T11:52:45;4.00;;;2.15;;
50056;SDS011;36875;49.468;11.200;2022-11-20T11:55:17;5.82;;;2.17;;
50056;SDS011;36875;49.468;11.200;2022-11-20T11:57:54;4.38;;;2.47;;
50056;SDS011;36875;49.468;11.200;2022-11-20T12:00:27;3.03;;;1.90;;
50056;SDS011;36875;49.468;11.200;2022-11-20T12:02:55;3.53;;;2.22;;
50056;SDS011;36875;49.468;11.200;2022-11-20T12:05:29;3.67;;;2.10;;
50056;SDS011;36875;49.468;11.200;2022-11-20T12:08:03;3.55;;;2.22;;
50056;SDS011;36875;49.468;11.200;2022-11-20T12:10:37;4.15;;;2.20;;
50056;SDS011;36875;49.468;11.200;2022-11-20T12:13:14;3.70;;;1.73;;
50056;SDS011;36875;49.468;11.200;2022-11-20T12:15:46;2.85;;;2.17;;
50056;SDS011;36875;49.468;11.200;2022-11-20T12:18:14;4.68;;;2.03;;
50056;SDS011;36875;49.468;11.200;2022-11-20T12:20:41;2.67;;;1.80;;
50056;SDS011;36875;49.468;11.200;2022-11-20T12:23:20;3.75;;;1.98;;
50056;SDS011;36875;49.468;11.200;2022-11-20T12:25:53;3.10;;;1.90;;
50056;SDS011;36875;49.468;11.200;2022-11-20T12:28:27;3.50;;;2.05;;
50056;SDS011;36875;49.468;11.200;2022-11-20T12:31:07;3.20;;;2.10;;
50056;SDS011;36875;49.468;11.200;2022-11-20T12:36:33;2.23;;;1.60;;
50056;SDS011;36875;49.468;11.200;2022-11-20T12:39:10;3.55;;;1.85;;
50056;SDS011;36875;49.468;11.200;2022-11-20T12:41:47;3.80;;;2.00;;
50056;SDS011;36875;49.468;11.200;2022-11-20T12:44:52;3.28;;;1.90;;
50056;SDS011;36875;49.468;11.200;2022-11-20T12:47:47;3.50;;;1.90;;
50056;SDS011;36875;49.468;11.200;2022-11-20T12:50:22;3.65;;;1.77;;
50056;SDS011;36875;49.468;11.200;2022-11-20T12:52:58;3.28;;;1.70;;
50056;SDS011;36875;49.468;11.200;2022-11-20T12:55:33;3.63;;;1.77;;
50056;SDS011;36875;49.468;11.200;2022-11-20T12:58:08;2.33;;;1.55;;
50056;SDS011;36875;49.468;11.200;2022-11-20T13:00:39;3.25;;;1.98;;
50056;SDS011;36875;49.468;11.200;2022-11-20T13:03:16;2.85;;;1.77;;
50056;SDS011;36875;49.468;11.200;2022-11-20T13:05:59;3.13;;;1.85;;
50056;SDS011;36875;49.468;11.200;2022-11-20T13:08:33;3.75;;;1.85;;
50056;SDS011;36875;49.468;11.200;2022-11-20T13:11:03;3.90;;;1.70;;
50056;SDS011;36875;49.468;11.200;2022-11-20T13:13:40;3.13;;;1.80;;
50056;SDS011;36875;49.468;11.200;2022-11-20T13:16:30;3.38;;;1.85;;
50056;SDS011;36875;49.468;11.200;2022-11-20T13:19:02;3.15;;;1.75;;
50056;SDS011;36875;49.468;11.200;2022-11-20T13:21:35;2.60;;;2.00;;
50056;SDS011;36875;49.468;11.200;2022-11-20T13:24:05;3.22;;;1.90;;
50056;SDS011;36875;49.468;11.200;2022-11-20T13:26:32;2.55;;;1.60;;
50056;SDS011;36875;49.468;11.200;2022-11-20T13:29:00;2.45;;;1.70;;
50056;SDS011;36875;49.468;11.200;2022-11-20T13:31:34;3.03;;;2.00;;
50056;SDS011;36875;49.468;11.200;2022-11-20T13:34:01;2.97;;;1.80;;
50056;SDS011;36875;49.468;11.200;2022-11-20T13:36:29;3.33;;;1.80;;
50056;SDS011;36875;49.468;11.200;2022-11-20T13:38:57;2.63;;;1.70;;
50056;SDS011;36875;49.468;11.200;2022-11-20T13:41:24;3.03;;;1.60;;
50056;SDS011;36875;49.468;11.200;2022-11-20T13:43:56;2.20;;;1.73;;
50056;SDS011;36875;49.468;11.200;2022-11-20T13:46:34;1.83;;;1.50;;
50056;SDS011;36875;49.468;11.200;2022-11-20T13:49:05;2.58;;;1.50;;
50056;SDS011;36875;49.468;11.200;2022-11-20T13:51:34;2.45;;;1.67;;
50056;SDS011;36875;49.468;11.200;2022-11-20T13:54:15;2.53;;;1.65;;
50056;SDS011;36875;49.468;11.200;2022-11-20T13:57:01;2.90;;;2.00;;
50056;SDS011;36875;49.468;11.200;2022-11-20T13:59:42;3.45;;;1.70;;
50056;SDS011;36875;49.468;11.200;2022-11-20T14:02:18;2.10;;;1.40;;
50056;SDS011;36875;49.468;11.200;2022-11-20T14:04:47;2.72;;;1.90;;
50056;SDS011;36875;49.468;11.200;2022-11-20T14:07:14;2.20;;;1.50;;
50056;SDS011;36875;49.468;11.200;2022-11-20T14:09:49;3.28;;;1.63;;
50056;SDS011;36875;49.468;11.200;2022-11-20T14:12:17;2.47;;;1.70;;
50056;SDS011;36875;49.468;11.200;2022-11-20T14:14:48;2.83;;;1.70;;
50056;SDS011;36875;49.468;11.200;2022-11-20T14:17:17;2.58;;;1.45;;
50056;SDS011;36875;49.468;11.200;2022-11-20T14:19:44;1.30;;;1.20;;
50056;SDS011;36875;49.468;11.200;2022-11-20T14:22:16;1.77;;;1.52;;
50056;SDS011;36875;49.468;11.200;2022-11-20T14:24:44;2.17;;;1.55;;
50056;SDS011;36875;49.468;11.200;2022-11-20T14:27:12;2.05;;;1.80;;
50056;SDS011;36875;49.468;11.200;2022-11-20T14:29:39;3.35;;;2.05;;
50056;SDS011;36875;49.468;11.200;2022-11-20T14:32:09;7.75;;;1.85;;
50056;SDS011;36875;49.468;11.200;2022-11-20T14:34:36;3.85;;;1.65;;
50056;SDS011;36875;49.468;11.200;2022-11-20T14:37:04;3.40;;;1.70;;
50056;SDS011;36875;49.468;11.200;2022-11-20T14:39:36;3.30;;;1.67;;
50056;SDS011;36875;49.468;11.200;2022-11-20T14:42:11;3.50;;;1.73;;
50056;SDS011;36875;49.468;11.200;2022-11-20T14:44:40;3.15;;;1.77;;
50056;SDS011;36875;49.468;11.200;2022-11-20T14:47:10;5.93;;;2.00;;
50056;SDS011;36875;49.468;11.200;2022-11-20T14:49:37;5.82;;;2.15;;
50056;SDS011;36875;49.468;11.200;2022-11-20T14:52:10;5.78;;;2.35;;